Terminal Aerodrome Forecast
Issued by NWS

Home | Current Version | Previous Version | Text Only | Print | Product List | Glossary On
Versions: 1 2 3 4 5 6 7 8 9 10 11 12 13 14 15
000
FTPA31 PHFO 222347
TAFHJH
TAF
PHJH 222347Z 2300/2324 07015KT P6SM SCT040
     FM230500 06008KT P6SM FEW030 SCT040
     FM232000 07013KT P6SM VCSH SCT025 SCT040
      AMD NOT SKED AFT 230400=

USA.gov is the U.S. government's official web portal to all federal, state and local government web resources and services.